createdAt,value
2022-08-03T04:14:57.701Z,11.60
2022-08-03T04:17:27.168Z,11.38
2022-08-03T04:19:54.709Z,6.07
2022-08-03T04:22:26.827Z,7.25
2022-08-03T04:25:01.557Z,8.60
2022-08-03T04:27:34.752Z,9.98
2022-08-03T04:30:05.160Z,9.27
2022-08-03T04:32:32.203Z,7.53
2022-08-03T04:34:59.282Z,8.68
2022-08-03T04:37:40.074Z,7.63
2022-08-03T04:40:10.788Z,7.32
2022-08-03T04:42:39.489Z,12.60
2022-08-03T04:45:07.836Z,6.93
2022-08-03T04:47:35.715Z,8.50
2022-08-03T04:50:03.924Z,7.43
2022-08-03T04:52:31.263Z,7.80
2022-08-03T04:54:57.903Z,5.45
2022-08-03T04:57:24.588Z,11.30
2022-08-03T05:00:01.314Z,13.93
2022-08-03T05:02:28.636Z,10.85
2022-08-03T05:04:55.420Z,10.88
2022-08-03T05:07:25.057Z,11.95
2022-08-03T05:10:01.400Z,11.82
2022-08-03T05:12:32.699Z,12.52
2022-08-03T05:15:00.434Z,13.13
2022-08-03T05:17:28.343Z,11.88
2022-08-03T05:19:55.550Z,4.57
2022-08-03T05:22:23.423Z,9.57
2022-08-03T05:24:50.271Z,13.68
2022-08-03T05:27:19.984Z,11.27
2022-08-03T05:29:48.353Z,14.38
2022-08-03T05:32:16.221Z,12.93
2022-08-03T05:34:43.563Z,14.75
2022-08-03T05:37:11.327Z,16.25
2022-08-03T05:39:38.302Z,19.50
2022-08-03T05:42:05.439Z,16.00
2022-08-03T05:44:32.481Z,10.57
2022-08-03T05:46:59.640Z,13.88
2022-08-03T05:49:26.735Z,14.55
2022-08-03T05:52:00.199Z,19.70
2022-08-03T05:54:56.064Z,13.43
2022-08-03T05:57:25.311Z,20.27
2022-08-03T05:59:53.934Z,16.20
2022-08-03T06:02:28.596Z,17.83
2022-08-03T06:04:55.553Z,17.05
2022-08-03T06:07:22.600Z,13.38
2022-08-03T06:10:34.957Z,18.60
2022-08-03T06:12:36.649Z,11.15
2022-08-03T06:15:05.269Z,14.30
2022-08-03T06:17:37.443Z,18.40
2022-08-03T06:20:05.785Z,16.23
2022-08-03T06:22:32.736Z,8.98
2022-08-03T06:25:03.666Z,19.00
2022-08-03T06:27:37.119Z,12.70
2022-08-03T06:30:05.259Z,18.83
2022-08-03T06:32:32.297Z,20.10
2022-08-03T06:34:59.749Z,14.50
2022-08-03T06:37:27.219Z,11.02
2022-08-03T06:39:54.360Z,16.20
2022-08-03T06:42:22.659Z,16.83
2022-08-03T06:44:49.771Z,18.13
2022-08-03T06:47:16.400Z,15.27
2022-08-03T06:49:43.145Z,15.13
2022-08-03T06:52:10.075Z,14.95
2022-08-03T06:54:36.750Z,14.88
2022-08-03T06:57:04.071Z,21.42
2022-08-03T07:00:07.445Z,17.10
2022-08-03T07:02:19.854Z,17.33
2022-08-03T07:04:51.622Z,15.07
2022-08-03T07:07:19.269Z,13.40
2022-08-03T07:09:57.335Z,14.93
2022-08-03T07:12:25.087Z,22.75
2022-08-03T07:14:52.594Z,16.63
2022-08-03T07:17:21.201Z,14.30
2022-08-03T07:19:47.819Z,19.50
2022-08-03T07:22:14.418Z,17.83
2022-08-03T07:24:42.067Z,14.38
2022-08-03T07:27:09.880Z,21.23
2022-08-03T07:29:37.060Z,18.15
2022-08-03T07:32:04.836Z,19.42
2022-08-03T07:34:31.507Z,14.20
2022-08-03T07:36:58.172Z,21.63
2022-08-03T07:39:24.846Z,15.35
2022-08-03T07:41:51.695Z,17.13
2022-08-03T07:44:21.878Z,14.82
2022-08-03T07:46:48.642Z,21.20
2022-08-03T07:49:15.587Z,18.58
2022-08-03T07:51:42.300Z,18.70
2022-08-03T07:54:10.182Z,13.73
2022-08-03T07:56:37.412Z,14.65
2022-08-03T07:59:04.154Z,16.08
2022-08-03T08:01:32.690Z,20.92
2022-08-03T08:03:59.475Z,16.52
2022-08-03T08:06:26.226Z,20.13
2022-08-03T08:08:53.852Z,24.45
2022-08-03T08:11:22.262Z,24.67
2022-08-03T08:13:48.958Z,22.20
2022-08-03T08:16:15.566Z,15.07
2022-08-03T08:18:42.177Z,12.90
2022-08-03T08:21:10.266Z,17.25
2022-08-03T08:23:44.187Z,18.60
2022-08-03T08:26:13.458Z,16.40
2022-08-03T08:28:40.283Z,18.13
2022-08-03T08:31:06.966Z,21.52
2022-08-03T08:34:02.552Z,20.10
2022-08-03T08:36:21.459Z,16.75
2022-08-03T08:38:48.633Z,18.20
2022-08-03T08:41:16.048Z,26.17
2022-08-03T08:43:42.892Z,22.83
2022-08-03T08:46:22.928Z,20.38
2022-08-03T08:48:51.606Z,21.33
2022-08-03T08:51:21.240Z,22.33
2022-08-03T08:53:53.792Z,21.77
2022-08-03T08:56:22.762Z,21.73
2022-08-03T08:58:53.461Z,14.52
2022-08-03T09:01:21.739Z,18.60
2022-08-03T09:03:48.792Z,18.05
2022-08-03T09:06:16.096Z,13.32
2022-08-03T09:08:43.268Z,16.58
2022-08-03T09:11:12.038Z,19.15
2022-08-03T09:13:39.345Z,20.67
2022-08-03T09:16:14.587Z,15.77
2022-08-03T09:18:46.614Z,15.43
2022-08-03T09:21:33.844Z,20.98
2022-08-03T09:24:04.723Z,20.17
2022-08-03T09:26:35.004Z,18.65
2022-08-03T09:29:11.238Z,22.23
2022-08-03T09:31:44.055Z,17.08
2022-08-03T09:34:16.194Z,10.90
2022-08-03T09:36:50.658Z,12.50
2022-08-03T09:39:40.391Z,15.95
2022-08-03T09:42:10.178Z,9.23
2022-08-03T09:44:45.504Z,14.27
2022-08-03T09:47:14.495Z,11.52
2022-08-03T09:49:42.520Z,19.73
2022-08-03T09:52:33.934Z,18.83
2022-08-03T09:56:30.512Z,21.92
2022-08-03T09:58:07.108Z,13.13
2022-08-03T10:00:53.853Z,15.15
2022-08-03T10:03:20.755Z,21.52
2022-08-03T10:05:47.370Z,24.48
2022-08-03T10:08:19.920Z,23.27
2022-08-03T10:10:49.605Z,21.75
2022-08-03T10:13:20.341Z,22.08
2022-08-03T10:16:23.612Z,15.65
2022-08-03T10:18:34.157Z,23.52
2022-08-03T10:21:10.234Z,18.60
2022-08-03T10:23:38.662Z,20.38
2022-08-03T10:26:07.783Z,9.55
2022-08-03T10:28:46.624Z,18.35
2022-08-03T10:31:14.466Z,18.63
2022-08-03T10:33:52.843Z,13.60
2022-08-03T10:36:24.136Z,14.52
2022-08-03T10:38:53.770Z,16.55
2022-08-03T10:41:22.007Z,19.80
2022-08-03T10:44:13.380Z,15.30
2022-08-03T10:46:44.803Z,15.23
2022-08-03T10:49:16.120Z,17.58
2022-08-03T10:51:45.365Z,17.08
2022-08-03T10:55:07.859Z,18.15
2022-08-03T10:57:44.297Z,14.50
2022-08-03T11:00:17.502Z,11.30
2022-08-03T11:03:14.522Z,18.38
2022-08-03T11:05:46.643Z,12.60
2022-08-03T11:08:27.875Z,11.52
2022-08-03T11:11:03.583Z,15.85
2022-08-03T11:13:33.634Z,15.80
2022-08-03T11:16:06.036Z,13.63
2022-08-03T11:18:34.797Z,14.02
2022-08-03T11:21:02.657Z,11.60
2022-08-03T11:24:02.643Z,16.15
2022-08-03T11:26:32.945Z,13.40
2022-08-03T11:29:30.114Z,18.33
2022-08-03T11:31:57.116Z,13.40
2022-08-03T11:34:24.650Z,16.77
2022-08-03T11:37:21.841Z,17.08
2022-08-03T11:39:50.564Z,16.52
2022-08-03T11:42:23.963Z,14.60
2022-08-03T11:44:52.163Z,13.30
2022-08-03T11:47:20.638Z,11.02
2022-08-03T11:49:48.856Z,9.00
2022-08-03T11:52:17.421Z,14.88
2022-08-03T11:54:44.445Z,12.85
2022-08-03T11:57:11.318Z,9.43
2022-08-03T11:59:38.772Z,11.02
2022-08-03T12:02:14.704Z,14.02
2022-08-03T12:04:58.656Z,10.60
2022-08-03T12:10:15.102Z,8.18
2022-08-03T12:12:46.320Z,8.07
2022-08-03T12:15:13.386Z,10.18
2022-08-03T12:17:41.538Z,4.78
2022-08-03T12:20:10.099Z,15.50
2022-08-03T12:22:38.955Z,10.93
2022-08-03T12:25:09.546Z,13.70
2022-08-03T12:27:36.856Z,11.35
2022-08-03T12:30:04.716Z,9.15
2022-08-03T12:32:31.634Z,12.18
2022-08-03T12:35:01.274Z,20.63
2022-08-03T12:37:29.191Z,11.50
2022-08-03T12:40:02.962Z,13.60
2022-08-03T12:42:35.066Z,8.60
2022-08-03T12:45:19.307Z,11.30
2022-08-03T12:50:28.651Z,7.28
2022-08-03T12:52:56.528Z,10.05
2022-08-03T12:55:24.807Z,11.65
2022-08-03T12:57:51.738Z,8.70
2022-08-03T13:00:28.686Z,13.18
2022-08-03T13:03:38.998Z,9.75
2022-08-03T13:05:57.538Z,9.00
2022-08-03T13:08:25.801Z,6.45
2022-08-03T13:10:52.970Z,9.27
2022-08-03T13:13:37.854Z,10.27
2022-08-03T13:16:05.064Z,6.90
2022-08-03T13:18:32.120Z,8.15
2022-08-03T13:21:00.806Z,4.60
2022-08-03T13:23:27.646Z,7.43
2022-08-03T13:25:55.804Z,8.02
2022-08-03T13:28:23.703Z,12.65
2022-08-03T13:30:50.625Z,6.45
2022-08-03T13:33:17.675Z,8.20
2022-08-03T13:35:44.638Z,6.78
2022-08-03T13:38:11.695Z,7.78
2022-08-03T13:40:41.474Z,13.13
2022-08-03T13:43:09.053Z,12.65
2022-08-03T13:45:36.080Z,8.70
2022-08-03T13:48:02.928Z,5.32
2022-08-03T13:50:31.331Z,16.25
2022-08-03T13:52:58.156Z,9.80
2022-08-03T13:55:24.985Z,7.78
2022-08-03T13:58:19.059Z,7.22
2022-08-03T14:00:39.768Z,8.30
2022-08-03T14:03:14.295Z,5.95
2022-08-03T14:05:45.013Z,6.43
2022-08-03T14:08:12.194Z,6.80
2022-08-03T14:10:43.019Z,7.30
2022-08-03T14:13:11.594Z,5.97
2022-08-03T14:15:39.474Z,10.50
2022-08-03T14:18:15.300Z,6.35
2022-08-03T14:20:50.236Z,10.75
2022-08-03T14:23:21.283Z,15.90
2022-08-03T14:25:52.388Z,5.95
2022-08-03T14:28:24.193Z,7.97
2022-08-03T14:30:56.053Z,6.68
2022-08-03T14:33:23.517Z,6.00
2022-08-03T14:35:51.164Z,6.55
2022-08-03T14:38:18.621Z,9.57
2022-08-03T14:40:45.668Z,10.25
2022-08-03T14:43:13.125Z,7.15
2022-08-03T14:45:40.577Z,6.40
2022-08-03T14:50:28.835Z,10.63
2022-08-03T14:50:56.936Z,9.73
2022-08-03T14:53:24.556Z,9.88
2022-08-03T14:55:52.954Z,8.98
2022-08-03T14:58:21.878Z,5.45
2022-08-03T15:00:50.425Z,11.38
2022-08-03T15:03:21.410Z,9.13
2022-08-03T15:05:48.716Z,5.10
2022-08-03T15:08:15.751Z,10.88
2022-08-03T15:10:44.826Z,4.82
2022-08-03T15:13:13.528Z,9.60
2022-08-03T15:15:41.112Z,5.15
2022-08-03T15:18:08.852Z,4.32
2022-08-03T15:20:44.405Z,9.35
2022-08-03T15:23:13.505Z,6.82
2022-08-03T15:26:06.455Z,4.80
2022-08-03T15:28:27.549Z,8.02
2022-08-03T15:30:55.002Z,5.57
2022-08-03T15:33:21.947Z,7.10
2022-08-03T15:35:49.720Z,10.45
2022-08-03T15:38:16.759Z,8.68
2022-08-03T15:40:43.602Z,7.18
2022-08-03T15:43:10.650Z,8.20
2022-08-03T15:45:38.107Z,8.45
2022-08-03T15:48:06.014Z,8.48
2022-08-03T15:50:33.332Z,8.95
2022-08-03T15:53:00.170Z,6.30
2022-08-03T15:55:27.325Z,8.80
2022-08-03T15:59:04.324Z,9.65
2022-08-03T16:00:44.340Z,10.27
2022-08-03T16:03:11.393Z,6.55
2022-08-03T16:05:38.354Z,8.13
2022-08-03T16:08:09.045Z,7.13
2022-08-03T16:13:09.623Z,6.38
2022-08-03T16:15:38.735Z,5.55
2022-08-03T16:18:06.789Z,9.52
2022-08-03T16:20:35.327Z,6.03
2022-08-03T16:23:09.124Z,9.43
2022-08-03T16:25:49.307Z,7.93
2022-08-03T16:28:17.178Z,6.15
2022-08-03T16:30:45.781Z,5.43
2022-08-03T16:33:16.632Z,4.88
2022-08-03T16:35:45.398Z,6.13
2022-08-03T16:38:18.218Z,4.18
2022-08-03T16:40:47.215Z,11.52
2022-08-03T16:43:19.004Z,5.22
2022-08-03T16:45:47.311Z,6.68
2022-08-03T16:48:15.391Z,6.90
2022-08-03T16:50:42.422Z,5.93
2022-08-03T16:53:15.524Z,8.57
2022-08-03T16:55:53.211Z,4.82
2022-08-03T16:58:34.379Z,7.25
2022-08-03T17:01:21.472Z,7.25
2022-08-03T17:04:01.918Z,8.32
2022-08-03T17:06:36.069Z,10.10
2022-08-03T17:09:10.253Z,7.28
2022-08-03T17:11:46.521Z,5.07
2022-08-03T17:14:16.727Z,11.93
2022-08-03T17:16:52.922Z,8.68
2022-08-03T17:19:26.401Z,6.97
2022-08-03T17:22:01.486Z,9.32
2022-08-03T17:24:34.993Z,8.63
2022-08-03T17:27:08.815Z,7.75
2022-08-03T17:29:45.110Z,7.28
2022-08-03T17:32:18.343Z,8.57
2022-08-03T17:34:48.974Z,7.22
2022-08-03T17:37:50.284Z,6.45
2022-08-03T17:40:04.699Z,5.63
2022-08-03T17:42:33.192Z,8.30
2022-08-03T17:45:03.897Z,7.65
2022-08-03T17:47:41.265Z,8.98
2022-08-03T17:50:23.462Z,6.60
2022-08-03T17:53:23.781Z,8.73
2022-08-03T17:56:07.717Z,9.30
2022-08-03T17:59:01.726Z,5.13
2022-08-03T18:02:29.950Z,6.18
2022-08-03T18:05:16.708Z,11.57
2022-08-03T18:08:01.591Z,8.98
2022-08-03T18:10:35.270Z,5.55
2022-08-03T18:13:10.892Z,12.53
2022-08-03T18:16:00.006Z,5.20
2022-08-03T18:18:45.261Z,9.05
2022-08-03T18:21:17.073Z,10.00
2022-08-03T18:23:50.920Z,7.22
2022-08-03T18:26:18.585Z,8.52
2022-08-03T18:28:46.143Z,15.57
2022-08-03T18:31:59.624Z,8.13
2022-08-03T18:34:16.481Z,9.75
2022-08-03T18:36:52.141Z,6.18
2022-08-03T18:39:23.966Z,9.70
2022-08-03T18:41:51.657Z,4.80
2022-08-03T18:44:37.633Z,4.97
2022-08-03T18:47:26.578Z,10.50
2022-08-03T18:50:03.643Z,6.95
2022-08-03T18:53:02.390Z,4.65
2022-08-03T18:55:35.439Z,6.95
2022-08-03T18:58:25.426Z,4.35
2022-08-03T19:01:04.510Z,4.45
2022-08-03T19:03:48.316Z,9.00
2022-08-03T19:06:28.636Z,5.60
2022-08-03T19:09:04.559Z,6.38
2022-08-03T19:12:10.980Z,7.15
2022-08-03T19:14:34.897Z,7.63
2022-08-03T19:17:07.730Z,7.30
2022-08-03T19:22:27.117Z,7.82
2022-08-03T19:24:55.391Z,5.07
2022-08-03T19:27:26.793Z,10.02
2022-08-03T19:29:58.504Z,9.38
2022-08-03T19:32:30.527Z,14.98
2022-08-03T19:34:59.391Z,6.32
2022-08-03T19:37:38.154Z,5.72
2022-08-03T19:40:12.261Z,5.45
2022-08-03T19:42:44.414Z,6.75
2022-08-03T19:45:15.585Z,3.63
2022-08-03T19:47:52.278Z,5.53
2022-08-03T19:50:20.992Z,8.02
2022-08-03T19:52:49.609Z,5.57
2022-08-03T19:55:18.190Z,7.85
2022-08-03T19:57:49.099Z,7.05
2022-08-03T20:00:19.536Z,4.72
2022-08-03T20:02:47.344Z,4.45
2022-08-03T20:05:18.600Z,6.10
2022-08-03T20:07:48.229Z,4.07
2022-08-03T20:10:16.563Z,10.68
2022-08-03T20:12:44.884Z,6.70
2022-08-03T20:15:12.095Z,4.75
2022-08-03T20:17:54.747Z,9.10
2022-08-03T20:20:30.164Z,2.58
2022-08-03T20:22:58.900Z,3.40
2022-08-03T20:25:57.109Z,6.75
2022-08-03T20:28:31.503Z,5.20
2022-08-03T20:30:58.512Z,6.55
2022-08-03T20:33:34.607Z,5.22
2022-08-03T20:36:13.234Z,4.60
2022-08-03T20:38:43.619Z,4.60
2022-08-03T20:41:14.045Z,8.30
2022-08-03T20:43:41.737Z,8.55
2022-08-03T20:46:32.162Z,6.53
2022-08-03T20:48:58.740Z,6.40
2022-08-03T20:51:48.953Z,5.10
2022-08-03T20:54:28.680Z,4.78
2022-08-03T20:56:57.780Z,3.97
2022-08-03T20:59:36.963Z,5.38
2022-08-03T21:02:19.780Z,6.10
2022-08-03T21:04:57.897Z,6.40
2022-08-03T21:07:45.924Z,9.43
2022-08-03T21:10:15.557Z,8.68
2022-08-03T21:13:01.993Z,4.28
2022-08-03T21:13:24.703Z,5.95
2022-08-03T21:16:04.828Z,5.93
2022-08-03T21:18:50.636Z,4.82
